Waynesville, Ohio
Current Conditions -  °F | °C
As of 9:53 AM on Tuesday 21 Oct 2014 (Local Time) from KMGY Reporting Station
Overcast Overcast  
Wind Chill: 10°   Ceiling: 5500
Heat Index: 10°   Visibility: 10mi
Dew Point:   Wind: 9mph
Humidity: 77%   Direction: 330°NNW
Pressure: 30"   Gusts: NA
Location:  39.53°N, 84.09°W
Report Text: KMGY 211353Z AUTO 33008KT 10SM OVC055 10/06 A3000 RMK AO2 SLP159 T01000061
Loading
Personal Weather Stations






























Interactive Weather Map
Tropical Storm Tracking
New forecast layout! Learn more

10-Day Weather Forecast

Advertisements
Track Severe Weather on mobile